• Join FlightAware (Why Join?)
  • Login
  • US Flag 
12:54PM EDT


 

Airport Tracker/Info


-or-


 

Live Flight TrackerFlight Track Log ✈ SWA3321 ✈ 12-Apr-2013 ✈ KLAS - KSMF

Flight Track Log - Related Links

Times and Time Zones

All times are in EDT time to prevent confusion due to time zone crossing. See the SWA3321 flight status page for this flight to view local times or setup timezone preferences in your user account.

Time Position Orientation Groundspeed Altitude Reporting Facility
EDT Latitude Longitude Course Direction KTS MPH feet Rate Location/Type
02:50PM 36.0747 -115.1819 258° West 170 196 3,500  Level Los Angeles Center
02:51PM 36.0625 -115.2550 258° West 240 276 5,000 1,680 Climbing Los Angeles Center
02:52PM 35.9947 -115.2894 202° Southwest 264 304 7,000 2,100 Climbing Los Angeles Center
02:53PM 35.9322 -115.3469 217° Southwest 274 315 9,300 2,160 Climbing Los Angeles Center
02:54PM 35.8875 -115.4336 238° Southwest 296 341 11,500 3,060 Climbing Los Angeles Center
02:55PM 35.8883 -115.5594 271° West 338 389 15,700 3,240 Climbing Los Angeles Center
02:56PM 35.8908 -115.6839 271° West 362 417 18,300 2,460 Climbing Los Angeles Center
02:57PM 35.8931 -115.8253 271° West 384 442 20,900 2,460 Climbing Los Angeles Center
02:58PM 35.8997 -115.9625 273° West 401 461 23,500 2,220 Climbing Los Angeles Center
02:59PM 35.9672 -116.0514 313° West 386 444 25,600 1,860 Climbing Los Angeles Center
03:00PM 36.0519 -116.1492 317° Northwest 399 459 27,400 1,980 Climbing Los Angeles Center
03:01PM 36.1678 -116.2828 317° Northwest 416 479 30,200 2,220 Climbing Los Angeles Center
03:02PM 36.2511 -116.3803 317° Northwest 416 479 32,500 1,800 Climbing Los Angeles Center
03:03PM 36.3314 -116.4744 317° Northwest 405 466 34,000 720 Climbing Los Angeles Center
03:04PM 36.4108 -116.5669 317° Northwest 398 458 34,000  Level Los Angeles Center
03:05PM 36.4933 -116.6622 317° Northwest 395 455 34,000  Level Los Angeles Center
03:06PM 36.5761 -116.7572 317° Northwest 392 451 34,000  Level Los Angeles Center
03:08PM 36.7394 -116.8861 328° Northwest 389 448 34,000  Level Oakland Center
03:08PM 36.7697 -116.9025 337° Northwest 381 438 34,000  Level Los Angeles Center
03:09PM 36.8683 -116.9772 329° Northwest 383 441 34,000  Level Los Angeles Center
03:10PM 36.9211 -117.0231 325° Northwest 383 441 34,000  Level Oakland Center
03:11PM 37.0111 -117.0917 329° Northwest 380 437 34,000  Level Oakland Center
03:12PM 37.1019 -117.1603 329° Northwest 380 437 34,000  Level Oakland Center
03:13PM 37.1914 -117.2272 329° Northwest 376 433 34,000  Level Oakland Center
03:14PM 37.2806 -117.2967 328° Northwest 376 433 34,000  Level Oakland Center
03:15PM 37.3711 -117.3608 331° Northwest 374 430 34,000  Level Oakland Center
03:16PM 37.4469 -117.4500 317° Northwest 385 443 34,000  Level Oakland Center
03:17PM 37.5272 -117.5739 309° West 382 440 34,000  Level Oakland Center
03:18PM 37.5931 -117.6764 309° West 377 434 34,000  Level Oakland Center
03:19PM 37.6581 -117.7786 309° West 373 429 34,000  Level Oakland Center
03:20PM 37.7228 -117.8811 309° West 372 428 34,000  Level Oakland Center
03:21PM 37.7881 -117.9842 309° West 374 430 34,000  Level Oakland Center
03:22PM 37.8525 -118.0881 308° West 373 429 34,000 -300 Level Oakland Center
03:23PM 37.9189 -118.1917 309° West 376 433 33,500 -720 Descending Oakland Center
03:24PM 37.9831 -118.2956 308° West 375 432 32,600 -960 Descending Oakland Center
03:25PM 38.0486 -118.4003 309° West 377 434 31,600 -1,020 Descending Oakland Center
03:26PM 38.1142 -118.5064 308° West 380 437 30,600 -840 Descending Oakland Center
03:27PM 38.1839 -118.6175 309° West 386 444 30,000 -300 Descending Oakland Center
03:28PM 38.2492 -118.7236 308° West 380 437 30,000  Level Oakland Center
03:30PM 38.3147 -118.8303 308° West 382 440 30,000  Level Oakland Center
03:31PM 38.3931 -118.9575 308° West 379 436 30,000  Level Oakland Center
03:32PM 38.4594 -119.0661 308° West 386 444 30,000  Level Oakland Center
03:33PM 38.5261 -119.1744 308° West 387 445 30,000  Level Oakland Center
03:34PM 38.5908 -119.2828 307° West 383 441 30,000 -300 Level Oakland Center
03:35PM 38.6567 -119.3911 308° West 385 443 29,500 -840 Descending Oakland Center
03:36PM 38.7219 -119.4989 308° West 381 438 28,400 -1,080 Descending Oakland Center
03:37PM 38.7839 -119.6075 306° West 379 436 27,400 -1,020 Descending Oakland Center
03:38PM 38.8081 -119.7425 283° West 389 448 26,400 -1,080 Descending Oakland Center
03:39PM 38.8306 -119.8897 281° West 385 443 25,300 -1,080 Descending Oakland Center
03:40PM 38.8500 -120.0217 281° West 379 436 24,300 -1,140 Descending Oakland Center
03:41PM 38.8694 -120.1522 281° West 375 432 23,000 -1,620 Descending Oakland Center
03:42PM 38.8886 -120.2772 281° West 363 418 21,000 -2,040 Descending Oakland Center
03:43PM 38.9058 -120.4011 280° West 355 409 18,900 -2,100 Descending Oakland Center
03:44PM 38.9244 -120.5256 281° West 357 411 16,800 -2,100 Descending Oakland Center
03:45PM 38.9450 -120.6728 280° West 352 405 14,600 -1,980 Descending Oakland Center
03:46PM 38.9628 -120.7897 281° West 340 391 12,800 -1,860 Descending Oakland Center
03:47PM 38.9792 -120.9028 281° West 325 374 10,800 -1,500 Descending Oakland Center
03:48PM 38.9894 -121.0111 277° West 307 353 9,800 -1,320 Descending Oakland Center
03:49PM 38.9725 -121.1122 258° West 289 333 8,200 -1,680 Descending Oakland Center
03:50PM 38.9500 -121.2167 255° West 281 323 6,500 -1,680 Descending Northern Cal TRACON
03:51PM 38.9333 -121.3000 256° West 269 310 5,000 -1,500 Descending Northern Cal TRACON
03:52PM 38.9000 -121.3833 243° Southwest 268 308 3,700 -1,200 Descending Northern Cal TRACON
03:53PM 38.8667 -121.4667 243° Southwest 259 298 2,800 -720 Descending Northern Cal TRACON
03:54PM 38.8333 -121.5333 237° Southwest 225 259 2,300 -540 Descending Northern Cal TRACON
03:55PM 38.8000 -121.5833 229° Southwest 173 199 1,800 -780 Descending Northern Cal TRACON
03:56PM 38.7500 -121.5833 180° South 145 167 800 -900 Descending Northern Cal TRACON
03:57PM 38.7167 -121.5833 180° South 139 160 100 -720 Descending Northern Cal TRACON
03:59PM 38.6954 -121.5908 218° Southwest  Level Estimated
04:06PM 38.6954 -121.5908 218° Southwest  Level Estimated